createdAt,value
2019-05-20T00:05:51.324Z,15.03
2019-05-20T00:11:53.853Z,15.05
2019-05-20T00:17:56.113Z,14.75
2019-05-20T00:23:58.508Z,14.85
2019-05-20T00:30:00.847Z,14.03
2019-05-20T00:36:03.234Z,12.28
2019-05-20T00:42:06.613Z,13.35
2019-05-20T00:48:09.017Z,13.35
2019-05-20T00:54:11.817Z,14.00
2019-05-20T01:00:14.211Z,12.85
2019-05-20T01:06:16.663Z,14.35
2019-05-20T01:12:19.018Z,11.48
2019-05-20T01:18:21.241Z,12.10
2019-05-20T01:24:23.576Z,15.20
2019-05-20T01:30:26.241Z,14.38
2019-05-20T01:36:28.524Z,14.65
2019-05-20T01:42:30.874Z,14.90
2019-05-20T01:48:33.196Z,14.33
2019-05-20T01:54:35.478Z,13.05
2019-05-20T02:00:37.795Z,15.80
2019-05-20T02:06:40.070Z,15.13
2019-05-20T02:12:42.387Z,14.87
2019-05-20T02:18:44.683Z,16.30
2019-05-20T02:24:46.991Z,13.75
2019-05-20T02:30:49.283Z,13.58
2019-05-20T02:36:53.935Z,12.68
2019-05-20T02:42:56.189Z,16.95
2019-05-20T02:48:59.655Z,15.60
2019-05-20T02:55:02.047Z,13.20
2019-05-20T03:01:04.436Z,16.23
2019-05-20T03:07:06.843Z,12.68
2019-05-20T03:13:09.242Z,16.23
2019-05-20T03:19:12.700Z,18.73
2019-05-20T03:25:15.297Z,16.15
2019-05-20T03:31:17.733Z,16.45
2019-05-20T03:37:20.091Z,15.13
2019-05-20T03:43:22.366Z,14.43
2019-05-20T03:49:24.657Z,20.45
2019-05-20T03:55:26.968Z,16.62
2019-05-20T04:01:29.285Z,15.45
2019-05-20T04:07:31.553Z,14.60
2019-05-20T04:13:34.919Z,16.27
2019-05-20T04:19:37.364Z,13.05
2019-05-20T04:25:39.742Z,21.17
2019-05-20T04:31:41.989Z,16.65
2019-05-20T04:37:44.457Z,19.20
2019-05-20T04:43:46.913Z,15.68
2019-05-20T04:49:49.298Z,16.37
2019-05-20T04:55:51.722Z,13.40
2019-05-20T05:01:54.225Z,18.25
2019-05-20T05:07:56.645Z,16.87
2019-05-20T05:13:59.124Z,17.02
2019-05-20T05:20:01.324Z,16.20
2019-05-20T05:26:03.958Z,15.03
2019-05-20T05:32:06.274Z,16.10
2019-05-20T05:38:08.822Z,17.95
2019-05-20T05:44:11.412Z,16.80
2019-05-20T05:50:13.764Z,17.95
2019-05-20T05:56:16.128Z,18.77
2019-05-20T06:02:18.381Z,16.42
2019-05-20T06:08:20.741Z,15.53
2019-05-20T06:14:23.103Z,14.75
2019-05-20T06:20:25.508Z,14.53
2019-05-20T06:26:27.907Z,14.38
2019-05-20T06:32:30.302Z,16.50
2019-05-20T06:38:34.797Z,16.17
2019-05-20T06:44:51.668Z,14.78
2019-05-20T06:50:41.365Z,17.52
2019-05-20T06:56:43.763Z,19.57
2019-05-20T07:02:46.045Z,18.02
2019-05-20T07:08:48.339Z,17.07
2019-05-20T07:14:50.534Z,17.27
2019-05-20T07:20:52.995Z,21.25
2019-05-20T07:26:55.232Z,16.60
2019-05-20T07:32:57.521Z,18.12
2019-05-20T07:39:00.840Z,17.85
2019-05-20T07:45:04.000Z,16.73
2019-05-20T07:51:07.788Z,17.55
2019-05-20T07:57:12.777Z,17.30
2019-05-20T08:03:15.033Z,15.25
2019-05-20T08:09:17.303Z,15.95
2019-05-20T08:15:20.649Z,20.35
2019-05-20T08:21:22.814Z,16.05
2019-05-20T08:27:25.014Z,22.20
2019-05-20T08:33:27.239Z,19.87
2019-05-20T08:39:29.757Z,21.45
2019-05-20T08:45:34.188Z,21.50
2019-05-20T08:51:36.924Z,23.05
2019-05-20T08:57:39.215Z,22.95
2019-05-20T09:03:41.532Z,23.22
2019-05-20T09:09:44.501Z,21.82
2019-05-20T09:15:46.725Z,21.55
2019-05-20T09:21:49.005Z,16.93
2019-05-20T09:27:51.311Z,15.23
2019-05-20T09:33:53.663Z,15.83
2019-05-20T09:39:55.821Z,15.88
2019-05-20T09:46:07.764Z,18.75
2019-05-20T09:52:02.160Z,19.00
2019-05-20T09:58:05.088Z,17.27
2019-05-20T10:04:07.340Z,16.55
2019-05-20T10:10:10.010Z,18.82
2019-05-20T10:16:12.416Z,19.25
2019-05-20T10:22:14.616Z,16.60
2019-05-20T10:28:17.067Z,17.35
2019-05-20T10:34:19.380Z,19.98
2019-05-20T10:40:22.710Z,16.15
2019-05-20T10:46:25.144Z,18.73
2019-05-20T10:52:27.531Z,16.60
2019-05-20T10:58:30.086Z,5.33
2019-05-20T11:04:35.391Z,5.53
2019-05-20T11:10:36.397Z,4.10
2019-05-20T11:16:38.700Z,3.35
2019-05-20T11:22:40.908Z,2.08
2019-05-20T11:28:43.887Z,1.82
2019-05-20T11:34:46.194Z,2.47
2019-05-20T11:40:49.598Z,2.25
2019-05-20T11:46:51.876Z,2.00
2019-05-20T11:52:55.011Z,2.80
2019-05-20T11:58:57.270Z,2.77
2019-05-20T12:04:59.460Z,2.55
2019-05-20T12:11:01.665Z,3.85
2019-05-20T12:17:04.168Z,6.15
2019-05-20T12:23:07.210Z,5.45
2019-05-20T12:29:09.480Z,4.67
2019-05-20T12:35:11.809Z,4.75
2019-05-20T12:41:14.172Z,4.60
2019-05-20T12:47:16.532Z,5.17
2019-05-20T12:53:19.102Z,6.28
2019-05-20T12:59:21.291Z,6.37
2019-05-20T13:05:23.751Z,8.25
2019-05-20T13:11:26.083Z,8.13
2019-05-20T13:17:29.164Z,7.08
2019-05-20T13:23:31.356Z,6.12
2019-05-20T13:29:33.583Z,8.68
2019-05-20T13:35:36.016Z,5.00
2019-05-20T13:41:38.313Z,6.17
2019-05-20T13:47:40.646Z,6.42
2019-05-20T13:53:44.173Z,6.67
2019-05-20T13:59:46.677Z,5.22
2019-05-20T14:05:49.095Z,4.97
2019-05-20T14:11:53.356Z,5.15
2019-05-20T14:17:55.586Z,3.75
2019-05-20T14:23:57.879Z,2.98
2019-05-20T14:30:00.219Z,2.75
2019-05-20T14:36:03.875Z,2.22
2019-05-20T14:42:06.153Z,2.20
2019-05-20T14:48:14.308Z,2.58
2019-05-20T14:54:18.638Z,2.30
2019-05-20T15:00:21.472Z,2.15
2019-05-20T15:06:25.305Z,2.22
2019-05-20T15:12:27.841Z,2.40
2019-05-20T15:18:30.279Z,2.70
2019-05-20T15:24:32.558Z,3.55
2019-05-20T15:30:35.189Z,2.30
2019-05-20T15:36:38.582Z,1.55
2019-05-20T15:42:41.034Z,1.52
2019-05-20T15:48:44.333Z,2.77
2019-05-20T15:54:46.797Z,2.77
2019-05-20T16:00:49.795Z,2.92
2019-05-20T16:06:52.253Z,2.25
2019-05-20T16:12:55.557Z,1.62
2019-05-20T16:18:58.111Z,1.72
2019-05-20T16:25:00.507Z,1.95
2019-05-20T16:31:03.470Z,2.40
2019-05-20T16:37:06.244Z,1.77
2019-05-20T16:43:08.521Z,5.08
2019-05-20T16:49:10.809Z,1.65
2019-05-20T16:55:13.306Z,1.00
2019-05-20T17:01:15.699Z,1.40
2019-05-20T17:07:20.128Z,1.67
2019-05-20T17:13:23.557Z,1.70
2019-05-20T17:19:25.882Z,2.67
2019-05-20T17:25:28.430Z,1.72
2019-05-20T17:31:31.055Z,1.75
2019-05-20T17:37:33.417Z,3.47
2019-05-20T17:43:35.863Z,1.90
2019-05-20T17:49:39.209Z,2.35
2019-05-20T17:55:41.565Z,3.20
2019-05-20T18:01:45.291Z,4.95
2019-05-20T18:07:47.748Z,4.03
2019-05-20T18:13:50.296Z,3.87
2019-05-20T18:19:52.950Z,4.37
2019-05-20T18:25:55.504Z,3.50
2019-05-20T18:31:58.220Z,4.75
2019-05-20T18:38:00.933Z,6.33
2019-05-20T18:44:03.810Z,4.20
2019-05-20T18:50:06.911Z,5.33
2019-05-20T18:56:09.262Z,9.28
2019-05-20T19:02:11.717Z,5.53
2019-05-20T19:08:14.835Z,2.87
2019-05-20T19:14:17.299Z,3.47
2019-05-20T19:20:22.891Z,3.50
2019-05-20T19:26:25.472Z,2.98
2019-05-20T19:32:28.785Z,1.82
2019-05-20T19:38:35.225Z,2.85
2019-05-20T19:44:37.666Z,4.50
2019-05-20T19:50:40.277Z,1.70
2019-05-20T19:56:42.918Z,3.83
2019-05-20T20:02:45.587Z,2.37
2019-05-20T20:08:48.432Z,1.35
2019-05-20T20:14:51.640Z,2.98
2019-05-20T20:20:54.198Z,2.83
2019-05-20T20:26:56.875Z,2.67
2019-05-20T20:32:59.391Z,1.60
2019-05-20T20:39:01.916Z,2.55
2019-05-20T20:45:04.859Z,4.22
2019-05-20T20:51:08.580Z,3.15
2019-05-20T20:57:11.071Z,3.00
2019-05-20T21:03:13.411Z,2.77
2019-05-20T21:09:15.837Z,2.90
2019-05-20T21:15:18.222Z,3.85
2019-05-20T21:21:20.529Z,4.67
2019-05-20T21:27:23.861Z,4.60
2019-05-20T21:33:26.279Z,2.98
2019-05-20T21:39:28.663Z,3.02
2019-05-20T21:45:31.117Z,3.40
2019-05-20T21:51:33.759Z,4.67
2019-05-20T21:57:36.346Z,4.08
2019-05-20T22:03:39.489Z,4.50
2019-05-20T22:09:43.951Z,3.58
2019-05-20T22:15:46.182Z,2.30
2019-05-20T22:21:50.525Z,1.52
2019-05-20T22:27:52.942Z,2.37
2019-05-20T22:33:55.353Z,2.98
2019-05-20T22:39:57.750Z,1.60
2019-05-20T22:46:00.213Z,1.40
2019-05-20T22:52:02.830Z,4.67
2019-05-20T22:58:05.143Z,2.60
2019-05-20T23:04:07.460Z,6.15
2019-05-20T23:10:14.260Z,6.70
2019-05-20T23:16:16.621Z,3.87
2019-05-20T23:22:18.947Z,5.80
2019-05-20T23:28:21.225Z,4.33
2019-05-20T23:34:23.550Z,3.50
2019-05-20T23:40:25.843Z,3.62
2019-05-20T23:46:28.250Z,4.58
2019-05-20T23:52:30.682Z,5.83
2019-05-20T23:58:33.225Z,5.30
